Time;durP1;ratioP1;P1;durP2;ratioP2;P2;SDS_P1;SDS_P2;PMS_P1;PMS_P2;Temp;Humidity;BMP_temperature;BMP_pressure;BME280_temperature;BME280_humidity;BME280_pressure;Samples;Min_cycle;Max_cycle;Signal;HPM_P1;HPM_P2
2021/08/03 00:02:24;;;;;;;3.00;1.42;;;;;;;15.79;72.20;101459.31;4834992;29;20153;-62
2021/08/03 00:04:56;;;;;;;2.90;1.50;;;;;;;15.91;71.54;101467.75;4834886;29;20061;-62
2021/08/03 00:07:25;;;;;;;4.38;1.50;;;;;;;16.21;72.20;101457.50;4835542;29;20096;-62
2021/08/03 00:09:53;;;;;;;7.25;1.60;;;;;;;16.37;70.21;101460.09;4851367;29;20140;-62
2021/08/03 00:12:21;;;;;;;4.43;1.63;;;;;;;16.65;69.24;101456.22;4846755;29;20144;-62
2021/08/03 00:14:50;;;;;;;7.57;1.65;;;;;;;17.07;67.76;101458.56;4854205;29;20653;-62
2021/08/03 00:17:20;;;;;;;6.50;1.80;;;;;;;17.59;65.79;101449.94;4842479;29;20060;-62
2021/08/03 00:19:47;;;;;;;5.32;1.70;;;;;;;17.00;66.20;101453.13;4833146;29;20739;-64
2021/08/03 00:22:14;;;;;;;2.97;1.50;;;;;;;16.53;68.44;101451.28;4821149;29;20094;-62
2021/08/03 00:24:42;;;;;;;2.78;1.70;;;;;;;16.00;71.11;101455.38;4834168;29;20145;-62
2021/08/03 00:27:09;;;;;;;4.35;1.55;;;;;;;16.32;70.75;101446.53;4835243;29;20066;-62
2021/08/03 00:29:36;;;;;;;6.35;1.70;;;;;;;16.94;68.52;101445.06;4827684;29;20152;-61
2021/08/03 00:32:04;;;;;;;4.47;1.80;;;;;;;16.39;69.75;101444.88;4833760;29;20559;-60
2021/08/03 00:34:30;;;;;;;5.25;1.85;;;;;;;16.34;70.15;101441.06;4823196;29;20153;-62
2021/08/03 00:36:58;;;;;;;4.78;1.65;;;;;;;16.50;69.46;101432.25;4847012;29;20161;-61
2021/08/03 00:39:24;;;;;;;4.38;1.38;;;;;;;16.63;69.38;101437.84;4828274;29;20101;-62
2021/08/03 00:41:55;;;;;;;5.35;1.35;;;;;;;16.89;68.90;101434.94;4834737;29;20140;-62
2021/08/03 00:44:40;;;;;;;5.68;1.80;;;;;;;17.06;68.12;101433.06;4826943;29;20180;-62
2021/08/03 00:47:08;;;;;;;7.63;1.60;;;;;;;17.02;68.25;101434.41;4831448;29;20512;-62
2021/08/03 00:49:34;;;;;;;7.72;1.88;;;;;;;17.04;67.50;101432.41;4824405;29;20090;-61
2021/08/03 00:52:02;;;;;;;3.83;1.70;;;;;;;17.10;67.29;101434.34;4831996;29;20148;-62
2021/08/03 00:54:29;;;;;;;4.03;1.60;;;;;;;17.12;67.77;101432.34;4835417;29;20152;-62
2021/08/03 00:56:56;;;;;;;5.55;1.70;;;;;;;17.18;67.25;101433.47;4827757;29;20161;-61
2021/08/03 00:59:22;;;;;;;5.20;1.92;;;;;;;17.09;67.88;101426.56;4834344;29;20064;-61
2021/08/03 01:01:49;;;;;;;6.40;1.98;;;;;;;16.89;68.47;101432.28;4825373;29;20205;-62
2021/08/03 01:04:17;;;;;;;4.55;1.80;;;;;;;17.14;67.82;101421.56;4833882;24;20070;-62
2021/08/03 01:06:51;;;;;;;6.77;2.17;;;;;;;17.32;66.57;101416.00;4838068;29;20091;-60
2021/08/03 01:09:36;;;;;;;2.83;1.45;;;;;;;17.15;67.23;101416.09;4846967;29;20049;-62
2021/08/03 01:12:40;;;;;;;10.93;2.20;;;;;;;17.15;67.23;101418.75;4840496;29;21348;-62
2021/08/03 01:15:16;;;;;;;5.88;1.88;;;;;;;17.19;67.17;101419.25;4798568;29;20482;-62
2021/08/03 01:18:15;;;;;;;5.13;1.90;;;;;;;17.41;66.39;101419.44;4813346;29;20060;-62
2021/08/03 01:21:03;;;;;;;7.50;1.70;;;;;;;17.48;65.46;101420.34;4832030;29;20838;-62
2021/08/03 01:23:46;;;;;;;4.47;1.83;;;;;;;17.43;65.79;101422.72;4846675;29;20148;-62
2021/08/03 01:26:50;;;;;;;5.82;1.70;;;;;;;17.13;67.04;101425.22;4852597;29;20140;-62
2021/08/03 01:29:20;;;;;;;5.95;1.83;;;;;;;17.61;65.60;101415.28;4842267;29;20168;-62
2021/08/03 01:31:49;;;;;;;4.45;1.83;;;;;;;17.65;65.38;101421.88;4834068;29;20072;-62
2021/08/03 01:34:19;;;;;;;6.30;1.95;;;;;;;17.32;66.84;101424.75;4829078;29;20168;-62
2021/08/03 01:36:50;;;;;;;4.43;1.55;;;;;;;16.49;69.56;101427.97;4838055;29;20076;-62
2021/08/03 01:39:20;;;;;;;4.25;1.70;;;;;;;16.19;71.72;101423.25;4846105;29;20056;-62
2021/08/03 01:41:51;;;;;;;3.92;2.20;;;;;;;16.46;70.82;101418.53;4828006;29;20081;-62
2021/08/03 01:44:18;;;;;;;4.30;2.10;;;;;;;16.60;69.99;101422.28;4830925;29;20637;-62
2021/08/03 01:46:46;;;;;;;6.90;2.03;;;;;;;16.91;68.33;101425.00;4844832;29;20168;-62
2021/08/03 01:49:17;;;;;;;3.33;1.60;;;;;;;17.07;67.88;101423.25;4839368;29;20073;-62
2021/08/03 01:51:46;;;;;;;5.70;1.77;;;;;;;17.18;66.84;101418.38;4826271;29;20085;-62
2021/08/03 01:54:13;;;;;;;4.90;1.98;;;;;;;17.25;67.08;101423.84;4834098;29;20186;-62
2021/08/03 01:56:42;;;;;;;3.00;1.80;;;;;;;17.23;66.51;101415.22;4823501;29;20176;-61
2021/08/03 01:59:09;;;;;;;4.75;2.10;;;;;;;16.95;67.78;101422.84;4829888;29;20509;-62
2021/08/03 02:01:38;;;;;;;6.32;2.08;;;;;;;17.06;67.59;101411.03;4824410;29;20134;-62
2021/08/03 02:04:06;;;;;;;;;;;;;;;17.14;66.84;101411.78;4833801;29;20068;-62
2021/08/03 02:06:35;;;;;;;6.10;1.70;;;;;;;17.25;65.97;101410.56;4833514;29;20352;-60
2021/08/03 02:09:02;;;;;;;3.22;1.60;;;;;;;17.13;66.49;101415.47;4825557;29;20054;-61
2021/08/03 02:11:31;;;;;;;8.13;2.00;;;;;;;17.12;66.89;101410.31;4839240;29;20484;-62
2021/08/03 02:13:58;;;;;;;6.72;1.90;;;;;;;16.24;69.80;101416.63;4827481;29;20057;-62
2021/08/03 02:16:24;;;;;;;7.63;2.30;;;;;;;15.71;72.27;101421.44;4833876;29;20066;-62
2021/08/03 02:18:52;;;;;;;6.22;1.90;;;;;;;15.46;73.89;101421.44;4826449;29;20061;-62
2021/08/03 02:21:21;;;;;;;3.33;1.63;;;;;;;15.22;75.39;101430.16;4829885;29;20101;-62
2021/08/03 02:23:47;;;;;;;;;;;;;;;15.56;75.37;101422.13;4824091;29;20096;-62
2021/08/03 02:26:15;;;;;;;9.13;2.10;;;;;;;16.18;71.51;101421.59;4833065;29;20022;-62
2021/08/03 02:28:42;;;;;;;5.85;1.80;;;;;;;15.59;74.87;101420.94;4832940;29;20145;-61
2021/08/03 02:31:27;;;;;;;6.80;2.15;;;;;;;16.64;71.96;101414.81;4826380;29;20153;-62
2021/08/03 02:34:46;;;;;;;6.30;2.20;;;;;;;16.27;71.33;101422.41;4831497;29;20058;-62
2021/08/03 02:37:17;;;;;;;3.97;2.20;;;;;;;15.67;74.12;101420.94;4825438;29;20156;-62
2021/08/03 02:39:44;;;;;;;5.30;2.28;;;;;;;15.57;75.44;101422.94;4833509;29;20173;-62
2021/08/03 02:42:13;;;;;;;5.13;2.60;;;;;;;15.48;75.29;101416.78;4825315;29;20054;-62
2021/08/03 02:44:42;;;;;;;7.32;2.70;;;;;;;15.65;76.12;101419.47;4839464;29;20576;-62
2021/08/03 02:47:19;;;;;;;5.80;2.35;;;;;;;15.82;73.79;101413.22;4845989;29;20084;-62
2021/08/03 02:49:52;;;;;;;6.35;2.72;;;;;;;15.34;75.90;101412.97;4828659;29;20088;-62
2021/08/03 02:52:21;;;;;;;8.57;2.75;;;;;;;15.27;76.01;101409.34;4823995;29;20061;-62
2021/08/03 02:54:59;;;;;;;10.80;3.08;;;;;;;15.11;77.02;101415.44;4818161;29;20145;-62
2021/08/03 02:57:28;;;;;;;5.63;2.40;;;;;;;16.03;73.72;101407.38;4808189;29;20356;-62
2021/08/03 02:59:59;;;;;;;9.60;2.65;;;;;;;16.68;70.29;101405.53;4814377;29;20108;-62
2021/08/03 03:02:27;;;;;;;9.23;2.85;;;;;;;16.58;70.69;101408.41;4810252;29;20092;-62
2021/08/03 03:05:02;;;;;;;5.60;2.70;;;;;;;16.69;69.94;101402.72;4804094;29;20111;-62
2021/08/03 03:07:46;;;;;;;7.53;2.85;;;;;;;16.72;69.80;101402.41;4813883;29;20145;-62
2021/08/03 03:10:23;;;;;;;10.63;3.20;;;;;;;16.72;70.00;101402.41;4809190;29;20565;-62
2021/08/03 03:12:55;;;;;;;8.90;3.30;;;;;;;16.72;69.48;101404.19;4830138;29;20089;-61
2021/08/03 03:15:22;;;;;;;8.40;3.40;;;;;;;16.71;69.71;101405.22;4829101;29;20415;-60
2021/08/03 03:17:50;;;;;;;6.45;2.80;;;;;;;16.65;69.93;101400.59;4830391;29;20493;-61
2021/08/03 03:20:19;;;;;;;9.18;3.97;;;;;;;16.60;70.64;101404.59;4826997;29;20517;-61
2021/08/03 03:22:48;;;;;;;13.63;3.90;;;;;;;16.57;71.08;101404.09;4835407;29;20094;-61
2021/08/03 03:25:23;;;;;;;10.35;3.72;;;;;;;16.71;70.27;101406.03;4829936;29;20064;-62
2021/08/03 03:27:54;;;;;;;7.03;3.40;;;;;;;16.84;69.36;101402.00;4836215;29;20157;-62
2021/08/03 03:30:21;;;;;;;6.85;3.55;;;;;;;16.88;69.43;101396.22;4825365;29;20145;-62
2021/08/03 03:32:48;;;;;;;8.77;4.32;;;;;;;16.90;69.56;101404.00;4830015;29;21073;-62
2021/08/03 03:35:19;;;;;;;10.20;3.88;;;;;;;17.02;68.78;101399.13;4840084;29;20057;-62
2021/08/03 03:37:46;;;;;;;6.50;3.45;;;;;;;16.98;68.68;101409.25;4848587;29;20799;-62
2021/08/03 03:40:19;;;;;;;9.77;3.90;;;;;;;16.49;70.99;101394.38;4854347;29;20058;-61
2021/08/03 03:42:48;;;;;;;6.93;3.55;;;;;;;16.60;70.70;101401.09;4846281;29;20163;-61
2021/08/03 03:45:16;;;;;;;9.30;3.67;;;;;;;16.53;70.89;101400.97;4850524;29;20849;-62
2021/08/03 03:48:07;;;;;;;10.17;4.10;;;;;;;16.65;70.63;101401.41;4842278;29;20140;-60
2021/08/03 03:50:49;;;;;;;9.48;4.53;;;;;;;16.79;70.11;101399.88;4835475;29;20090;-62
2021/08/03 03:53:21;;;;;;;9.20;4.32;;;;;;;16.70;69.73;101399.09;4825336;29;20141;-62
2021/08/03 03:55:51;;;;;;;8.48;4.28;;;;;;;16.73;70.05;101398.72;4817759;29;20134;-62
2021/08/03 03:58:19;;;;;;;9.45;4.30;;;;;;;16.73;70.22;101392.63;4807186;29;20626;-61
2021/08/03 04:00:48;;;;;;;7.40;4.10;;;;;;;16.95;69.21;101393.69;4812190;29;20157;-62
2021/08/03 04:03:18;;;;;;;10.45;4.18;;;;;;;17.03;68.67;101388.31;4817221;29;20510;-62
2021/08/03 04:05:47;;;;;;;12.63;4.70;;;;;;;17.12;68.97;101397.88;4810214;29;20066;-62
2021/08/03 04:08:13;;;;;;;;;;;;;;;17.17;68.92;101392.91;4818439;29;21035;-62
2021/08/03 04:10:41;;;;;;;12.95;5.28;;;;;;;16.91;69.42;101390.56;4809748;29;20296;-61
2021/08/03 04:13:09;;;;;;;11.45;5.65;;;;;;;16.90;70.16;101386.28;4829718;29;20538;-62
2021/08/03 04:15:36;;;;;;;16.50;6.25;;;;;;;16.84;70.11;101388.78;4824579;29;20054;-62
2021/08/03 04:18:04;;;;;;;15.07;5.20;;;;;;;16.65;71.01;101395.31;4835320;29;20649;-61
2021/08/03 04:20:30;;;;;;;13.65;4.97;;;;;;;16.54;71.93;101389.41;4826648;29;20140;-61
2021/08/03 04:22:57;;;;;;;10.23;5.43;;;;;;;16.48;72.15;101391.88;4833640;29;20140;-61
2021/08/03 04:25:24;;;;;;;11.48;5.22;;;;;;;16.50;71.98;101389.91;4831034;29;20494;-61
2021/08/03 04:27:51;;;;;;;10.50;5.05;;;;;;;16.42;72.15;101390.75;4823977;29;20153;-61
2021/08/03 04:30:18;;;;;;;12.38;5.30;;;;;;;16.37;72.71;101390.44;4835143;29;20050;-62
2021/08/03 04:32:44;;;;;;;10.85;4.97;;;;;;;16.48;72.22;101389.25;4826883;29;20868;-61
2021/08/03 04:35:11;;;;;;;10.70;4.75;;;;;;;16.41;72.20;101395.22;4835530;29;20085;-62
2021/08/03 04:37:43;;;;;;;10.68;4.40;;;;;;;16.43;72.00;101394.25;4827754;29;20172;-61
2021/08/03 04:40:11;;;;;;;11.00;4.85;;;;;;;16.47;72.20;101398.19;4829764;29;20060;-61
2021/08/03 04:42:37;;;;;;;10.70;4.53;;;;;;;16.49;72.10;101383.78;4825638;29;20518;-62
2021/08/03 04:45:06;;;;;;;10.45;4.57;;;;;;;16.56;72.17;101389.19;4843904;29;20265;-62
2021/08/03 04:47:38;;;;;;;12.00;4.43;;;;;;;16.56;72.14;101392.69;4852635;29;20144;-62
2021/08/03 04:50:07;;;;;;;11.52;4.32;;;;;;;16.50;72.85;101385.41;4828668;29;20141;-62
2021/08/03 04:52:33;;;;;;;10.57;4.88;;;;;;;16.58;72.75;101388.06;4831337;29;20057;-62
2021/08/03 04:55:00;;;;;;;9.80;5.13;;;;;;;16.67;72.74;101390.66;4805993;29;20165;-64
2021/08/03 04:57:26;;;;;;;12.15;5.05;;;;;;;16.68;73.14;101387.84;4815809;29;20149;-61
2021/08/03 04:59:53;;;;;;;11.23;4.68;;;;;;;16.71;72.84;101390.13;4808855;29;20148;-64
2021/08/03 05:02:19;;;;;;;14.75;5.00;;;;;;;16.71;73.17;101384.00;4815694;29;20149;-64
2021/08/03 05:04:46;;;;;;;10.90;4.68;;;;;;;16.54;74.08;101388.56;4808950;29;20150;-61
2021/08/03 05:07:13;;;;;;;11.65;4.53;;;;;;;16.54;74.51;101389.41;4818698;29;20157;-64
2021/08/03 05:09:39;;;;;;;11.55;5.13;;;;;;;16.64;73.42;101389.19;4832727;29;20056;-62
2021/08/03 05:12:06;;;;;;;12.70;5.60;;;;;;;16.91;72.70;101384.44;4837560;29;20144;-62
2021/08/03 05:14:32;;;;;;;11.35;4.65;;;;;;;16.69;73.11;101386.84;4833885;29;20153;-61
2021/08/03 05:16:59;;;;;;;15.90;5.50;;;;;;;16.60;74.11;101382.56;4827039;29;20058;-62
2021/08/03 05:19:25;;;;;;;13.35;5.55;;;;;;;16.74;73.72;101379.19;4831104;29;20058;-62
2021/08/03 05:21:52;;;;;;;15.05;5.50;;;;;;;16.80;73.22;101380.34;4820353;29;20149;-62
2021/08/03 05:24:25;;;;;;;15.05;5.55;;;;;;;16.73;73.37;101382.03;4833974;29;20587;-60
2021/08/03 05:26:55;;;;;;;14.95;6.35;;;;;;;16.82;73.52;101388.13;4829178;29;20054;-61
2021/08/03 05:29:21;;;;;;;13.55;5.07;;;;;;;16.83;73.12;101392.44;4818927;29;20050;-62
2021/08/03 05:31:48;;;;;;;18.88;6.50;;;;;;;16.78;73.74;101385.00;4837377;29;20144;-62
2021/08/03 05:34:14;;;;;;;12.07;5.50;;;;;;;16.89;73.77;101395.19;4824646;29;20061;-62
2021/08/03 05:36:41;;;;;;;13.57;6.00;;;;;;;16.98;72.96;101383.56;4829755;29;20096;-62
2021/08/03 05:39:09;;;;;;;14.10;5.60;;;;;;;17.16;72.41;101382.47;4826990;29;20418;-62
2021/08/03 05:41:35;;;;;;;13.48;6.22;;;;;;;17.32;71.17;101392.13;4832730;29;20177;-62
2021/08/03 05:44:02;;;;;;;11.98;5.43;;;;;;;17.43;70.70;101394.38;4827769;29;20149;-62
2021/08/03 05:46:30;;;;;;;12.93;6.30;;;;;;;17.55;70.19;101392.13;4852398;29;20144;-62
2021/08/03 05:48:57;;;;;;;16.70;6.47;;;;;;;17.52;70.01;101392.47;4832506;29;20058;-61
2021/08/03 05:51:23;;;;;;;17.25;6.88;;;;;;;17.57;69.76;101382.97;4828834;29;20173;-61
2021/08/03 05:53:50;;;;;;;16.73;6.47;;;;;;;17.58;69.45;101384.63;4823832;29;20510;-62
2021/08/03 05:56:16;;;;;;;12.40;6.38;;;;;;;17.52;69.66;101381.84;4809587;29;20096;-61
2021/08/03 05:58:43;;;;;;;13.07;5.97;;;;;;;17.54;69.72;101377.19;4815625;29;20068;-61
2021/08/03 06:01:09;;;;;;;14.43;6.50;;;;;;;17.72;69.21;101384.81;4806728;29;20162;-62
2021/08/03 06:03:36;;;;;;;20.27;6.93;;;;;;;17.56;70.02;101377.84;4809937;29;20478;-62
2021/08/03 06:06:05;;;;;;;14.80;6.60;;;;;;;17.92;68.54;101374.56;4808477;29;20093;-62
2021/08/03 06:08:34;;;;;;;15.25;6.82;;;;;;;18.56;65.76;101374.84;4815827;29;20062;-62
2021/08/03 06:11:02;;;;;;;15.02;6.85;;;;;;;18.56;65.89;101372.19;4811973;29;20064;-61
2021/08/03 06:13:30;;;;;;;14.85;6.03;;;;;;;18.78;65.43;101367.75;4832119;29;20102;-62
2021/08/03 06:16:02;;;;;;;16.33;6.80;;;;;;;18.99;64.96;101371.44;4830080;29;20097;-62
2021/08/03 06:18:31;;;;;;;17.30;6.43;;;;;;;18.75;65.32;101369.94;4822117;29;20172;-61
2021/08/03 06:20:58;;;;;;;21.15;6.85;;;;;;;18.55;66.34;101375.03;4831354;29;20132;-62
2021/08/03 06:23:25;;;;;;;15.95;7.82;;;;;;;18.20;68.31;101368.63;4826969;29;20144;-62
2021/08/03 06:25:55;;;;;;;16.40;7.68;;;;;;;18.22;67.97;101369.28;4834170;29;20164;-62
2021/08/03 06:28:22;;;;;;;19.48;7.88;;;;;;;18.15;68.83;101370.00;4827281;29;20061;-62
2021/08/03 06:30:50;;;;;;;17.40;8.88;;;;;;;18.05;69.17;101363.31;4829531;29;20152;-61
2021/08/03 06:33:19;;;;;;;18.73;8.23;;;;;;;17.40;71.97;101365.53;4823159;29;20463;-62
2021/08/03 06:35:49;;;;;;;20.63;9.15;;;;;;;17.58;71.09;101366.06;4833118;29;20705;-62
2021/08/03 06:38:16;;;;;;;20.17;8.90;;;;;;;17.43;71.63;101375.00;4833374;29;20241;-64
2021/08/03 06:40:53;;;;;;;18.75;9.38;;;;;;;16.98;73.49;101365.00;4826898;29;20085;-62
2021/08/03 06:43:25;;;;;;;23.35;9.65;;;;;;;16.92;74.39;101373.66;4830362;29;20152;-63
2021/08/03 06:46:03;;;;;;;18.38;9.07;;;;;;;17.03;74.50;101367.13;4836902;29;20464;-63
2021/08/03 06:48:45;;;;;;;21.45;10.73;;;;;;;17.04;74.77;101375.94;4847525;29;20060;-62
2021/08/03 06:51:15;;;;;;;29.27;11.90;;;;;;;17.32;73.91;101373.56;4829913;29;20090;-63
2021/08/03 06:53:45;;;;;;;30.58;14.45;;;;;;;17.22;73.75;101371.16;4831926;29;20058;-63
2021/08/03 06:56:21;;;;;;;30.77;15.05;;;;;;;18.90;67.40;101364.63;4830109;29;20093;-62
2021/08/03 06:59:05;;;;;;;29.58;15.10;;;;;;;19.21;64.71;101369.66;4830414;29;20486;-63
2021/08/03 07:01:52;;;;;;;32.90;15.55;;;;;;;18.22;69.00;101367.44;4828972;29;20054;-63
2021/08/03 07:04:24;;;;;;;30.58;16.60;;;;;;;17.83;70.46;101367.66;4837009;29;20061;-63
2021/08/03 07:06:56;;;;;;;32.28;16.98;;;;;;;17.70;70.94;101373.56;4829745;29;20061;-63
2021/08/03 07:09:27;;;;;;;42.65;17.88;;;;;;;17.77;71.70;101374.50;4836476;29;20467;-63
2021/08/03 07:11:55;;;;;;;34.75;16.33;;;;;;;17.74;71.71;101374.88;4826697;29;20122;-62
2021/08/03 07:14:24;;;;;;;42.45;18.75;;;;;;;17.77;71.79;101367.38;4832070;29;20160;-63
2021/08/03 07:16:55;;;;;;;44.00;19.23;;;;;;;17.94;71.41;101372.56;4836206;29;20061;-63
2021/08/03 07:19:23;;;;;;;42.28;20.70;;;;;;;18.20;71.19;101366.81;4829523;29;20075;-62
2021/08/03 07:21:51;;;;;;;43.70;21.48;;;;;;;17.96;71.74;101367.91;4834317;29;20169;-62
2021/08/03 07:24:18;;;;;;;42.60;21.95;;;;;;;17.97;71.99;101365.06;4827545;29;20066;-62
2021/08/03 07:26:45;;;;;;;55.45;24.17;;;;;;;18.82;68.65;101368.22;4831828;29;20069;-63
2021/08/03 07:29:11;;;;;;;53.95;25.38;;;;;;;19.05;67.70;101362.75;4828943;29;20152;-62
2021/08/03 07:31:41;;;;;;;58.83;26.05;;;;;;;19.25;66.89;101370.91;4835050;29;20096;-63
2021/08/03 07:34:11;;;;;;;58.40;26.38;;;;;;;19.38;66.39;101364.06;4830675;29;20155;-63
2021/08/03 07:36:38;;;;;;;58.63;25.25;;;;;;;19.56;66.08;101372.38;4835609;29;20108;-62
2021/08/03 07:39:06;;;;;;;49.25;24.17;;;;;;;19.56;65.54;101367.06;4832343;29;20114;-63
2021/08/03 07:41:36;;;;;;;60.10;25.13;;;;;;;19.55;65.29;101360.94;4824406;29;20434;-63
2021/08/03 07:44:05;;;;;;;48.03;23.48;;;;;;;19.59;65.19;101361.38;4837345;29;20148;-63
2021/08/03 07:46:32;;;;;;;;;;;;;;;19.60;65.15;101372.81;4848523;29;20101;-63
2021/08/03 07:49:02;;;;;;;42.70;21.73;;;;;;;19.69;65.02;101361.84;4843227;29;19935;-63
2021/08/03 07:51:28;;;;;;;49.25;22.60;;;;;;;19.83;65.08;101357.47;4829695;29;20176;-63
2021/08/03 07:53:55;;;;;;;46.03;21.55;;;;;;;20.08;64.63;101367.69;4822211;29;20422;-63
2021/08/03 07:56:21;;;;;;;46.10;21.90;;;;;;;20.50;62.40;101357.81;4809073;29;20140;-63
2021/08/03 07:58:48;;;;;;;49.60;23.00;;;;;;;20.37;63.07;101366.59;4814988;29;20153;-63
2021/08/03 08:01:17;;;;;;;51.45;22.67;;;;;;;20.50;62.86;101363.16;4816757;29;20057;-63
2021/08/03 08:03:46;;;;;;;50.13;22.70;;;;;;;20.65;62.15;101366.53;4811255;29;20062;-63
2021/08/03 08:06:13;;;;;;;60.70;26.42;;;;;;;20.79;61.41;101363.91;4815861;29;20133;-63
2021/08/03 08:08:39;;;;;;;55.72;25.88;;;;;;;20.95;60.32;101355.53;4807177;29;20216;-63
2021/08/03 08:11:06;;;;;;;57.15;27.73;;;;;;;20.94;60.27;101356.56;4817185;29;20141;-63
2021/08/03 08:13:33;;;;;;;61.95;27.70;;;;;;;20.91;59.80;101360.47;4810744;29;20670;-63
2021/08/03 08:15:59;;;;;;;53.83;25.85;;;;;;;21.04;59.88;101353.50;4817316;29;20059;-63
2021/08/03 08:18:26;;;;;;;61.20;23.88;;;;;;;20.95;59.42;101350.19;4825462;29;20157;-63
2021/08/03 08:20:52;;;;;;;60.15;26.05;;;;;;;21.08;59.39;101357.41;4823706;29;20148;-62
2021/08/03 08:23:19;;;;;;;53.47;24.70;;;;;;;21.05;59.29;101341.81;4834559;29;20188;-63
2021/08/03 08:25:45;;;;;;;56.88;25.05;;;;;;;21.51;58.47;101349.88;4828401;29;20144;-63
2021/08/03 08:28:12;;;;;;;47.55;22.60;;;;;;;21.48;59.00;101349.44;4835292;29;20840;-63
2021/08/03 08:30:39;;;;;;;49.95;25.13;;;;;;;21.47;59.58;101353.16;4827421;29;20165;-62
2021/08/03 08:33:07;;;;;;;51.80;21.73;;;;;;;21.65;59.32;101347.19;4836403;29;20787;-63
2021/08/03 08:35:37;;;;;;;43.10;20.13;;;;;;;21.65;59.23;101348.00;4843065;29;20701;-63
2021/08/03 08:38:04;;;;;;;44.63;22.27;;;;;;;21.67;59.71;101351.28;4853629;29;20844;-63
2021/08/03 08:40:31;;;;;;;43.85;19.17;;;;;;;21.88;58.84;101344.09;4853424;29;20525;-63
2021/08/03 08:42:58;;;;;;;43.95;20.13;;;;;;;21.87;58.71;101345.09;4845825;29;20509;-62
2021/08/03 08:45:25;;;;;;;49.00;23.50;;;;;;;21.98;57.46;101349.81;4853309;29;20140;-64
2021/08/03 08:47:51;;;;;;;45.15;22.23;;;;;;;22.11;58.05;101347.09;4839217;29;21348;-63
2021/08/03 08:50:20;;;;;;;48.88;22.50;;;;;;;22.21;57.20;101352.00;4831173;29;20158;-63
2021/08/03 08:52:50;;;;;;;43.55;20.58;;;;;;;22.30;57.19;101357.97;4828030;29;20149;-62
2021/08/03 08:55:17;;;;;;;42.38;20.70;;;;;;;22.16;56.91;101345.66;4817006;29;20058;-62
2021/08/03 08:57:46;;;;;;;39.10;20.08;;;;;;;22.14;56.71;101340.50;4810503;29;20574;-62
2021/08/03 09:00:13;;;;;;;53.83;22.73;;;;;;;22.26;56.70;101340.72;4815347;29;20165;-62
2021/08/03 09:02:45;;;;;;;49.15;21.98;;;;;;;21.87;58.04;101343.25;4809842;29;20145;-61
2021/08/03 09:05:15;;;;;;;43.80;21.48;;;;;;;21.81;58.08;101345.94;4812757;29;20144;-62
2021/08/03 09:07:52;;;;;;;41.95;21.45;;;;;;;21.56;59.30;101343.09;4815845;29;20057;-62
2021/08/03 09:10:40;;;;;;;36.08;18.42;;;;;;;21.78;58.14;101346.34;4809539;29;20361;-63
2021/08/03 09:13:14;;;;;;;46.97;22.98;;;;;;;21.77;58.41;101348.19;4832043;29;20110;-63
2021/08/03 09:15:46;;;;;;;33.88;18.58;;;;;;;21.79;58.94;101348.00;4824079;29;20168;-62
2021/08/03 09:18:29;;;;;;;41.60;19.35;;;;;;;21.65;59.49;101361.34;4830428;29;20089;-63
2021/08/03 09:20:56;;;;;;;41.85;20.58;;;;;;;21.65;58.63;101352.53;4824867;29;20053;-62
2021/08/03 09:23:42;;;;;;;45.15;22.77;;;;;;;21.95;58.07;101360.09;4833261;29;20855;-62
2021/08/03 09:26:09;;;;;;;40.22;22.38;;;;;;;21.79;57.71;101361.34;4826937;29;20190;-62
2021/08/03 09:28:56;;;;;;;40.67;19.50;;;;;;;21.75;59.75;101360.13;4832440;29;20136;-64
2021/08/03 09:31:22;;;;;;;41.83;21.52;;;;;;;21.77;58.73;101358.06;4821447;29;20366;-63
2021/08/03 09:33:49;;;;;;;42.33;23.08;;;;;;;21.88;57.64;101368.13;4833322;29;20076;-62
2021/08/03 09:36:15;;;;;;;50.60;22.77;;;;;;;21.82;58.54;101363.63;4828343;29;20140;-62
2021/08/03 09:38:42;;;;;;;46.90;21.27;;;;;;;22.19;57.63;101366.59;4834102;29;20165;-62
2021/08/03 09:41:09;;;;;;;43.38;22.52;;;;;;;;;;4833536;29;20152;-62
2021/08/03 09:43:36;;;;;;;45.30;24.00;;;;;;;22.76;56.44;101364.97;4824229;29;20066;-62
2021/08/03 09:46:02;;;;;;;55.17;25.27;;;;;;;22.42;57.33;101364.28;4846417;29;20136;-61
2021/08/03 09:48:30;;;;;;;55.92;25.48;;;;;;;21.97;57.62;101360.69;4837459;29;20149;-62
2021/08/03 09:51:04;;;;;;;50.08;25.58;;;;;;;21.78;59.11;101365.03;4833006;29;20515;-62
2021/08/03 09:53:47;;;;;;;52.60;23.60;;;;;;;;;;4821631;29;20085;-63
2021/08/03 09:56:27;;;;;;;61.67;27.83;;;;;;;22.06;57.87;101359.44;4814502;29;20477;-63
2021/08/03 09:59:02;;;;;;;49.22;24.83;;;;;;;21.96;58.33;101354.53;4806179;29;20154;-62
2021/08/03 10:01:41;;;;;;;57.65;27.35;;;;;;;22.06;58.80;101359.44;4814927;29;20149;-62
2021/08/03 10:04:13;;;;;;;59.45;27.25;;;;;;;22.28;57.02;101358.16;4809193;29;20543;-62
2021/08/03 10:06:41;;;;;;;66.00;30.55;;;;;;;21.96;57.81;101359.06;4815287;29;20515;-62
2021/08/03 10:09:09;;;;;;;63.38;31.48;;;;;;;22.24;58.08;101356.94;4808050;29;20149;-62
2021/08/03 10:11:36;;;;;;;71.68;33.83;;;;;;;22.29;57.66;101357.13;4812163;29;20688;-61
2021/08/03 10:14:22;;;;;;;75.15;33.85;;;;;;;22.25;56.20;101344.44;4833641;29;20064;-63
2021/08/03 10:16:51;;;;;;;67.93;33.17;;;;;;;23.14;54.76;101341.91;4828305;29;20700;-62
2021/08/03 10:19:21;;;;;;;;;;;;;;;23.97;51.68;101354.16;4834327;29;20061;-63
2021/08/03 10:21:57;;;;;;;72.88;37.58;;;;;;;24.39;51.23;101347.06;4824864;29;20027;-64
2021/08/03 10:24:40;;;;;;;87.85;37.90;;;;;;;23.92;52.56;101351.34;4829434;29;20152;-63
2021/08/03 10:27:12;;;;;;;73.63;34.22;;;;;;;23.74;52.42;101339.53;4822984;29;20140;-63
2021/08/03 10:29:57;;;;;;;71.78;35.65;;;;;;;23.60;52.04;101341.53;4833495;29;20489;-63
2021/08/03 10:32:44;;;;;;;69.53;33.30;;;;;;;23.73;53.19;101334.38;4826080;29;20148;-63
2021/08/03 10:35:18;;;;;;;;;;;;;;;23.60;51.86;101329.97;4833922;29;20081;-63
2021/08/03 10:38:00;;;;;;;75.40;33.75;;;;;;;23.85;52.29;101333.44;4823404;29;19932;-63
2021/08/03 10:40:43;;;;;;;82.28;38.80;;;;;;;23.99;51.61;101325.28;4829156;29;20068;-63
2021/08/03 10:43:21;;;;;;;81.65;39.42;;;;;;;24.05;51.25;101329.72;4826738;29;20068;-62
2021/08/03 10:46:03;;;;;;;81.43;38.00;;;;;;;24.19;50.35;101331.25;4848198;29;20152;-63
2021/08/03 10:48:53;;;;;;;82.15;39.15;;;;;;;24.07;50.48;101327.66;4837310;29;20050;-62
2021/08/03 10:51:20;;;;;;;80.90;38.45;;;;;;;24.24;50.79;101328.69;4830417;29;20352;-63
2021/08/03 10:54:12;;;;;;;76.50;39.38;;;;;;;24.32;50.90;101324.06;4812580;29;20520;-63
2021/08/03 10:56:54;;;;;;;81.45;38.53;;;;;;;24.44;49.46;101322.25;4814490;29;20848;-63
2021/08/03 10:59:37;;;;;;;72.93;36.13;;;;;;;24.70;50.04;101325.63;4807130;29;20529;-63
2021/08/03 11:02:06;;;;;;;84.05;38.20;;;;;;;24.81;49.71;101325.69;4814074;29;20103;-63
2021/08/03 11:04:46;;;;;;;78.28;36.90;;;;;;;24.36;49.10;101327.94;4811912;29;20127;-63
2021/08/03 11:07:42;;;;;;;67.70;35.90;;;;;;;24.69;49.66;101326.69;4808820;29;20062;-63
2021/08/03 11:10:08;;;;;;;66.15;34.85;;;;;;;24.91;49.29;101322.44;4808683;29;20090;-63
2021/08/03 11:12:46;;;;;;;84.45;37.80;;;;;;;25.16;48.62;101316.06;4824622;29;20103;-63
2021/08/03 11:15:20;;;;;;;72.97;37.00;;;;;;;25.07;47.32;101318.28;4833310;29;20089;-63
2021/08/03 11:18:13;;;;;;;73.03;35.28;;;;;;;24.79;48.36;101324.28;4825617;29;20533;-63
2021/08/03 11:20:42;;;;;;;71.90;35.55;;;;;;;24.96;49.30;101319.91;4826585;29;20137;-63
2021/08/03 11:23:13;;;;;;;65.53;35.13;;;;;;;24.97;49.24;101316.19;4821279;29;20065;-63
2021/08/03 11:25:42;;;;;;;70.30;35.45;;;;;;;25.21;48.86;101310.84;4832513;29;20085;-63
2021/08/03 11:28:14;;;;;;;69.47;36.90;;;;;;;24.45;49.46;101314.00;4826792;29;20164;-63
2021/08/03 11:30:43;;;;;;;76.35;38.75;;;;;;;24.44;50.25;101312.38;4831678;29;20145;-63
2021/08/03 11:33:14;;;;;;;61.85;33.33;;;;;;;24.44;49.97;101312.38;4826443;29;20062;-63
2021/08/03 11:35:41;;;;;;;71.15;35.90;;;;;;;24.65;49.04;101310.25;4830495;29;20148;-63
2021/08/03 11:38:13;;;;;;;60.97;35.65;;;;;;;24.20;49.24;101313.28;4829264;29;20152;-63